createdAt,value
2023-03-07T00:01:27.708Z,15.10
2023-03-07T00:03:54.374Z,14.53
2023-03-07T00:06:20.989Z,19.77
2023-03-07T00:08:52.091Z,17.77
2023-03-07T00:11:19.042Z,37.90
2023-03-07T00:13:45.482Z,39.93
2023-03-07T00:16:17.569Z,29.67
2023-03-07T00:18:44.337Z,21.60
2023-03-07T00:21:13.797Z,23.33
2023-03-07T00:23:42.401Z,19.10
2023-03-07T00:26:12.399Z,17.93
2023-03-07T00:28:39.035Z,16.17
2023-03-07T00:31:08.143Z,16.10
2023-03-07T00:33:35.498Z,15.07
2023-03-07T00:36:06.191Z,15.03
2023-03-07T00:38:33.666Z,15.87
2023-03-07T00:41:06.416Z,15.43
2023-03-07T00:43:33.930Z,16.63
2023-03-07T00:46:00.661Z,15.33
2023-03-07T00:48:27.963Z,16.67
2023-03-07T00:50:55.472Z,17.37
2023-03-07T00:53:22.225Z,17.83
2023-03-07T00:55:54.630Z,17.47
2023-03-07T00:58:21.172Z,17.87
2023-03-07T01:00:47.536Z,17.40
2023-03-07T01:03:13.911Z,18.00
2023-03-07T01:05:40.825Z,17.57
2023-03-07T01:08:07.236Z,19.00
2023-03-07T01:10:33.978Z,18.23
2023-03-07T01:13:00.923Z,18.20
2023-03-07T01:15:27.971Z,19.67
2023-03-07T01:17:54.430Z,19.20
2023-03-07T01:20:20.795Z,19.10
2023-03-07T01:22:47.190Z,18.53
2023-03-07T01:25:13.879Z,20.10
2023-03-07T01:27:40.421Z,19.27
2023-03-07T01:30:08.331Z,19.77
2023-03-07T01:32:35.094Z,18.87
2023-03-07T01:35:01.507Z,18.80
2023-03-07T01:37:27.865Z,18.83
2023-03-07T01:39:54.336Z,17.97
2023-03-07T01:42:21.445Z,19.80
2023-03-07T01:45:26.658Z,18.80
2023-03-07T01:47:53.065Z,20.10
2023-03-07T01:50:19.846Z,22.33
2023-03-07T01:52:49.744Z,22.07
2023-03-07T01:55:22.720Z,21.73
2023-03-07T01:57:51.813Z,21.17
2023-03-07T02:00:29.885Z,22.20
2023-03-07T02:03:11.697Z,22.50
2023-03-07T02:05:47.259Z,22.10
2023-03-07T02:08:16.097Z,25.10
2023-03-07T02:10:43.299Z,23.27
2023-03-07T02:13:10.787Z,23.83
2023-03-07T02:15:37.451Z,23.37
2023-03-07T02:18:05.421Z,24.20
2023-03-07T02:20:44.064Z,24.10
2023-03-07T02:23:17.886Z,26.07
2023-03-07T02:25:56.095Z,28.63
2023-03-07T02:28:22.473Z,25.93
2023-03-07T02:30:58.135Z,27.47
2023-03-07T02:33:25.159Z,28.13
2023-03-07T02:35:58.088Z,28.03
2023-03-07T02:38:24.833Z,28.27
2023-03-07T02:40:55.107Z,28.40
2023-03-07T02:43:22.684Z,30.17
2023-03-07T02:45:49.090Z,29.83
2023-03-07T02:48:15.494Z,31.30
2023-03-07T02:50:41.907Z,29.23
2023-03-07T02:53:08.652Z,30.30
2023-03-07T02:55:35.047Z,30.03
2023-03-07T02:58:01.430Z,30.47
2023-03-07T03:00:27.839Z,31.73
2023-03-07T03:02:54.222Z,30.23
2023-03-07T03:05:21.476Z,30.03
2023-03-07T03:07:48.532Z,29.97
2023-03-07T03:10:15.087Z,30.60
2023-03-07T03:12:41.474Z,30.63
2023-03-07T03:15:08.438Z,30.80
2023-03-07T03:17:34.820Z,29.40
2023-03-07T03:20:01.351Z,29.33
2023-03-07T03:22:27.768Z,31.57
2023-03-07T03:24:54.132Z,30.50
2023-03-07T03:27:20.577Z,30.10
2023-03-07T03:29:46.983Z,29.13
2023-03-07T03:32:13.381Z,30.23
2023-03-07T03:34:39.770Z,29.97
2023-03-07T03:37:07.742Z,30.93
2023-03-07T03:39:34.105Z,29.47
2023-03-07T03:42:00.492Z,29.10
2023-03-07T03:44:26.969Z,28.07
2023-03-07T03:46:53.449Z,28.90
2023-03-07T03:49:19.833Z,29.80
2023-03-07T03:51:46.226Z,29.20
2023-03-07T03:54:12.697Z,28.30
2023-03-07T03:56:39.091Z,30.73
2023-03-07T03:59:05.460Z,29.17
2023-03-07T04:01:31.898Z,28.80
2023-03-07T04:03:58.846Z,28.83
2023-03-07T04:06:28.364Z,30.00
2023-03-07T04:08:55.380Z,27.60
2023-03-07T04:11:23.301Z,28.70
2023-03-07T04:13:50.186Z,28.03
2023-03-07T04:16:17.143Z,28.27
2023-03-07T04:18:43.840Z,28.60
2023-03-07T04:21:11.152Z,26.87
2023-03-07T04:23:37.631Z,26.67
2023-03-07T04:26:06.386Z,27.37
2023-03-07T04:28:45.127Z,25.83
2023-03-07T04:31:11.972Z,27.87
2023-03-07T04:33:38.583Z,27.43
2023-03-07T04:36:05.594Z,26.70
2023-03-07T04:38:31.988Z,26.20
2023-03-07T04:40:58.360Z,28.10
2023-03-07T04:43:24.753Z,26.60
2023-03-07T04:45:53.176Z,27.00
2023-03-07T04:48:20.017Z,26.47
2023-03-07T04:50:49.344Z,26.90
2023-03-07T04:53:16.652Z,28.37
2023-03-07T04:55:43.705Z,28.67
2023-03-07T04:58:12.942Z,30.60
2023-03-07T05:00:43.710Z,31.63
2023-03-07T05:03:11.441Z,30.87
2023-03-07T05:05:37.979Z,33.53
2023-03-07T05:08:05.546Z,31.60
2023-03-07T05:10:33.359Z,33.43
2023-03-07T05:12:59.781Z,31.87
2023-03-07T05:15:26.367Z,31.57
2023-03-07T05:17:52.840Z,33.23
2023-03-07T05:20:19.389Z,32.37
2023-03-07T05:22:46.723Z,32.43
2023-03-07T05:25:13.919Z,30.47
2023-03-07T05:27:40.836Z,30.10
2023-03-07T05:30:08.273Z,27.27
2023-03-07T05:32:35.050Z,31.03
2023-03-07T05:35:02.013Z,29.83
2023-03-07T05:37:28.386Z,27.73
2023-03-07T05:39:54.789Z,29.20
2023-03-07T05:42:21.257Z,29.73
2023-03-07T05:44:47.635Z,30.40
2023-03-07T05:47:14.069Z,30.60
2023-03-07T05:49:40.498Z,29.90
2023-03-07T05:52:06.946Z,31.03
2023-03-07T05:54:33.330Z,30.57
2023-03-07T05:56:59.769Z,31.03
2023-03-07T05:59:26.134Z,29.00
2023-03-07T06:01:52.518Z,28.03
2023-03-07T06:04:18.925Z,29.30
2023-03-07T06:06:45.327Z,28.70
2023-03-07T06:09:11.689Z,29.40
2023-03-07T06:11:38.044Z,29.40
2023-03-07T06:14:04.430Z,29.10
2023-03-07T06:16:30.876Z,29.10
2023-03-07T06:18:57.246Z,29.70
2023-03-07T06:21:23.600Z,27.73
2023-03-07T06:23:50.026Z,30.23
2023-03-07T06:26:16.532Z,27.97
2023-03-07T06:28:43.140Z,26.87
2023-03-07T06:31:15.305Z,28.50
2023-03-07T06:33:42.314Z,28.03
2023-03-07T06:36:11.527Z,26.10
2023-03-07T06:38:38.385Z,27.10
2023-03-07T06:41:05.158Z,28.93
2023-03-07T06:43:32.023Z,26.23
2023-03-07T06:45:58.502Z,26.33
2023-03-07T06:48:25.261Z,26.50
2023-03-07T06:50:51.664Z,27.33
2023-03-07T06:53:18.261Z,27.60
2023-03-07T06:55:51.232Z,26.03
2023-03-07T06:58:18.346Z,26.63
2023-03-07T07:00:45.091Z,27.87
2023-03-07T07:03:20.448Z,27.73
2023-03-07T07:05:46.851Z,25.03
2023-03-07T07:08:13.241Z,24.37
2023-03-07T07:10:39.610Z,24.57
2023-03-07T07:13:06.007Z,22.60
2023-03-07T07:15:32.593Z,22.97
2023-03-07T07:17:58.949Z,22.67
2023-03-07T07:20:25.407Z,26.27
2023-03-07T07:22:51.836Z,23.07
2023-03-07T07:25:18.201Z,23.27
2023-03-07T07:27:44.569Z,23.77
2023-03-07T07:30:11.522Z,23.03
2023-03-07T07:32:38.040Z,25.30
2023-03-07T07:35:04.998Z,23.63
2023-03-07T07:37:31.386Z,22.20
2023-03-07T07:39:57.761Z,25.30
2023-03-07T07:42:24.213Z,26.37
2023-03-07T07:44:50.612Z,23.70
2023-03-07T07:47:17.106Z,21.87
2023-03-07T07:49:43.504Z,21.17
2023-03-07T07:52:09.886Z,22.33
2023-03-07T07:54:36.359Z,22.60
2023-03-07T07:57:02.760Z,23.23
2023-03-07T07:59:29.244Z,21.83
2023-03-07T08:01:55.662Z,24.13
2023-03-07T08:04:22.027Z,19.80
2023-03-07T08:06:48.408Z,21.40
2023-03-07T08:09:14.780Z,20.43
2023-03-07T08:11:41.495Z,19.97
2023-03-07T08:14:07.948Z,19.43
2023-03-07T08:16:34.342Z,21.27
2023-03-07T08:19:01.134Z,19.80
2023-03-07T08:21:27.713Z,20.83
2023-03-07T08:23:55.275Z,20.80
2023-03-07T08:26:22.238Z,20.30
2023-03-07T08:28:48.612Z,21.10
2023-03-07T08:31:17.677Z,20.47
2023-03-07T08:33:46.731Z,19.97
2023-03-07T08:36:13.252Z,19.47
2023-03-07T08:38:39.654Z,19.67
2023-03-07T08:41:08.053Z,19.67
2023-03-07T08:43:36.555Z,19.03
2023-03-07T08:46:03.680Z,18.83
2023-03-07T08:48:30.228Z,19.23
2023-03-07T08:50:57.048Z,19.80
2023-03-07T08:53:23.558Z,19.03
2023-03-07T08:55:50.081Z,19.53
2023-03-07T08:58:16.467Z,20.23
2023-03-07T09:00:42.868Z,18.30
2023-03-07T09:03:09.335Z,17.67
2023-03-07T09:05:39.158Z,19.27
2023-03-07T09:08:07.114Z,17.63
2023-03-07T09:10:34.500Z,17.97
2023-03-07T09:13:01.054Z,18.80
2023-03-07T09:15:27.492Z,16.57
2023-03-07T09:17:54.241Z,16.50
2023-03-07T09:20:20.936Z,16.67
2023-03-07T09:22:47.291Z,17.43
2023-03-07T09:25:14.456Z,15.37
2023-03-07T09:27:40.947Z,15.90
2023-03-07T09:30:07.915Z,15.80
2023-03-07T09:32:34.403Z,15.17
2023-03-07T09:35:00.819Z,14.53
2023-03-07T09:37:27.264Z,14.87
2023-03-07T09:39:53.625Z,14.47
2023-03-07T09:42:32.686Z,14.57
2023-03-07T09:45:11.051Z,13.33
2023-03-07T09:47:58.815Z,14.43
2023-03-07T09:50:43.637Z,13.00
2023-03-07T09:53:19.073Z,13.17
2023-03-07T09:55:47.762Z,12.77
2023-03-07T09:58:19.703Z,13.77
2023-03-07T10:00:56.621Z,11.90
2023-03-07T10:03:44.804Z,12.37
2023-03-07T10:06:20.798Z,11.83
2023-03-07T10:08:47.247Z,11.70
2023-03-07T10:11:46.317Z,11.80
2023-03-07T10:14:28.046Z,11.13
2023-03-07T10:17:22.548Z,11.00
2023-03-07T10:19:57.165Z,11.00
2023-03-07T10:22:46.797Z,10.77
2023-03-07T10:25:29.568Z,9.93
2023-03-07T10:28:12.412Z,9.80
2023-03-07T10:30:38.798Z,8.03
2023-03-07T10:33:07.342Z,8.17
2023-03-07T10:35:41.145Z,6.73
2023-03-07T10:38:24.588Z,5.50
2023-03-07T10:41:21.512Z,5.03
2023-03-07T10:43:50.564Z,4.63
2023-03-07T10:46:25.797Z,4.13
2023-03-07T10:48:59.308Z,3.70
2023-03-07T10:51:42.928Z,3.97
2023-03-07T10:54:20.112Z,3.83
2023-03-07T10:57:10.487Z,4.20
2023-03-07T10:59:39.354Z,4.87
2023-03-07T11:02:46.050Z,4.80
2023-03-07T11:05:31.213Z,4.50
2023-03-07T11:07:58.459Z,4.53
2023-03-07T11:10:39.268Z,4.50
2023-03-07T11:13:17.358Z,4.43
2023-03-07T11:15:46.651Z,4.70
2023-03-07T11:18:31.432Z,5.27
2023-03-07T11:20:59.085Z,4.47
2023-03-07T11:23:31.454Z,4.83
2023-03-07T11:26:22.174Z,4.90
2023-03-07T11:29:05.079Z,4.67
2023-03-07T11:31:57.292Z,4.37
2023-03-07T11:34:31.038Z,3.83
2023-03-07T11:37:28.202Z,4.50
2023-03-07T11:40:22.410Z,3.90
2023-03-07T11:43:20.454Z,3.97
2023-03-07T11:46:03.667Z,3.33
2023-03-07T11:49:03.946Z,3.63
2023-03-07T11:52:02.658Z,3.70
2023-03-07T11:54:42.797Z,3.47
2023-03-07T11:57:51.223Z,3.00
2023-03-07T12:00:26.579Z,2.97
2023-03-07T12:03:26.916Z,3.20
2023-03-07T12:05:58.884Z,3.13
2023-03-07T12:08:46.228Z,4.00
2023-03-07T12:11:42.099Z,3.37
2023-03-07T12:14:25.963Z,2.27
2023-03-07T12:17:07.617Z,2.73
2023-03-07T12:19:53.868Z,2.07
2023-03-07T12:22:29.203Z,2.50
2023-03-07T12:25:13.188Z,2.23
2023-03-07T12:27:47.389Z,2.10
2023-03-07T12:30:23.144Z,1.73
2023-03-07T12:32:51.177Z,2.33
2023-03-07T12:35:32.735Z,2.37
2023-03-07T12:38:09.027Z,2.50
2023-03-07T12:40:47.052Z,2.90
2023-03-07T12:43:35.029Z,2.43
2023-03-07T12:46:17.939Z,2.50
2023-03-07T12:48:54.494Z,2.13
2023-03-07T12:51:35.072Z,3.00
2023-03-07T12:54:12.744Z,2.57
2023-03-07T12:56:51.060Z,2.33
2023-03-07T12:59:20.357Z,2.67
2023-03-07T13:01:52.715Z,2.63
2023-03-07T13:04:30.446Z,2.40
2023-03-07T13:07:21.180Z,2.80
2023-03-07T13:09:50.647Z,2.53
2023-03-07T13:12:18.365Z,2.83
2023-03-07T13:14:48.118Z,2.77
2023-03-07T13:17:26.605Z,3.20
2023-03-07T13:19:55.237Z,2.83
2023-03-07T13:22:21.546Z,3.57
2023-03-07T13:24:52.066Z,2.73
2023-03-07T13:27:26.030Z,3.30
2023-03-07T13:30:07.697Z,3.00
2023-03-07T13:32:49.279Z,3.40
2023-03-07T13:35:38.309Z,2.63
2023-03-07T13:38:10.705Z,3.07
2023-03-07T13:40:37.018Z,3.83
2023-03-07T13:43:27.829Z,2.87
2023-03-07T13:46:01.934Z,3.50
2023-03-07T13:48:28.397Z,2.80
2023-03-07T13:50:54.664Z,2.80
2023-03-07T13:53:33.239Z,2.60
2023-03-07T13:56:16.877Z,3.13
2023-03-07T13:58:52.206Z,3.23
2023-03-07T14:01:21.752Z,2.90
2023-03-07T14:03:53.164Z,3.10
2023-03-07T14:06:22.936Z,2.80
2023-03-07T14:08:50.960Z,2.90
2023-03-07T14:11:23.177Z,2.17
2023-03-07T14:14:09.652Z,3.40
2023-03-07T14:16:54.013Z,3.17
2023-03-07T14:19:42.759Z,3.53
2023-03-07T14:22:42.286Z,2.90
2023-03-07T14:25:17.413Z,2.63
2023-03-07T14:28:02.060Z,3.00
2023-03-07T14:30:31.441Z,3.00
2023-03-07T14:32:58.760Z,2.60
2023-03-07T14:35:43.202Z,3.60
2023-03-07T14:38:20.788Z,3.40
2023-03-07T14:40:58.779Z,3.13
2023-03-07T14:43:40.635Z,3.00
2023-03-07T14:46:39.245Z,3.17
2023-03-07T14:49:09.431Z,3.27
2023-03-07T14:51:41.310Z,2.67
2023-03-07T14:54:15.258Z,2.90
2023-03-07T14:56:41.994Z,2.80
2023-03-07T14:59:26.127Z,2.80
2023-03-07T15:01:54.820Z,2.13
2023-03-07T15:04:30.773Z,2.83
2023-03-07T15:07:00.004Z,2.90
2023-03-07T15:09:27.063Z,2.60
2023-03-07T15:12:16.530Z,2.50
2023-03-07T15:14:45.970Z,2.83
2023-03-07T15:17:20.658Z,3.50
2023-03-07T15:19:51.872Z,3.10
2023-03-07T15:22:28.933Z,3.80
2023-03-07T15:24:55.551Z,3.60
2023-03-07T15:27:32.099Z,3.37
2023-03-07T15:30:00.763Z,3.23
2023-03-07T15:32:39.393Z,4.23
2023-03-07T15:35:05.827Z,3.83
2023-03-07T15:37:32.957Z,3.40
2023-03-07T15:40:08.255Z,3.00
2023-03-07T15:42:52.685Z,3.40
2023-03-07T15:45:39.673Z,3.43
2023-03-07T15:48:43.642Z,4.70
2023-03-07T15:51:19.707Z,5.33
2023-03-07T15:53:56.104Z,4.83
2023-03-07T15:56:26.746Z,4.00
2023-03-07T15:59:00.284Z,4.07
2023-03-07T16:01:27.665Z,3.80
2023-03-07T16:03:59.320Z,4.30
2023-03-07T16:06:38.071Z,3.70
2023-03-07T16:09:05.895Z,3.43
2023-03-07T16:11:33.143Z,3.50
2023-03-07T16:13:59.879Z,3.50
2023-03-07T16:16:29.539Z,3.00
2023-03-07T16:18:58.191Z,2.97
2023-03-07T16:21:26.037Z,3.63
2023-03-07T16:23:52.698Z,3.50
2023-03-07T16:26:24.448Z,3.33
2023-03-07T16:28:52.006Z,3.60
2023-03-07T16:31:18.825Z,3.50
2023-03-07T16:33:46.609Z,3.30
2023-03-07T16:36:14.711Z,3.80
2023-03-07T16:38:41.757Z,3.73
2023-03-07T16:41:26.173Z,3.97
2023-03-07T16:43:55.343Z,4.83
2023-03-07T16:46:22.891Z,4.27
2023-03-07T16:48:49.307Z,4.80
2023-03-07T16:51:18.624Z,4.17
2023-03-07T16:53:46.029Z,3.60
2023-03-07T16:56:23.289Z,4.20
2023-03-07T16:58:49.777Z,5.40
2023-03-07T17:01:16.220Z,4.33
2023-03-07T17:03:42.765Z,3.60
2023-03-07T17:06:16.759Z,4.73
2023-03-07T17:08:44.665Z,3.83
2023-03-07T17:11:31.919Z,3.43
2023-03-07T17:14:00.745Z,4.27
2023-03-07T17:16:27.236Z,3.40
2023-03-07T17:18:53.998Z,3.73
2023-03-07T17:21:22.059Z,4.20
2023-03-07T17:23:49.279Z,4.77
2023-03-07T17:26:27.718Z,4.67
2023-03-07T17:28:57.030Z,4.63
2023-03-07T17:31:23.586Z,5.23
2023-03-07T17:33:49.994Z,4.87
2023-03-07T17:36:16.432Z,6.30
2023-03-07T17:38:42.905Z,4.97
2023-03-07T17:41:09.272Z,4.97
2023-03-07T17:43:35.655Z,4.90
2023-03-07T17:46:07.217Z,4.57
2023-03-07T17:48:35.562Z,4.67
2023-03-07T17:51:07.074Z,4.23
2023-03-07T17:53:35.410Z,5.00
2023-03-07T17:56:10.555Z,4.50
2023-03-07T17:58:38.493Z,4.47
2023-03-07T18:01:08.808Z,3.80
2023-03-07T18:03:35.481Z,4.40
2023-03-07T18:06:01.874Z,3.83
2023-03-07T18:08:31.397Z,3.83
2023-03-07T18:11:11.740Z,4.50
2023-03-07T18:13:38.686Z,4.63
2023-03-07T18:16:06.225Z,4.83
2023-03-07T18:18:50.530Z,4.03
2023-03-07T18:21:24.496Z,4.40
2023-03-07T18:23:51.942Z,4.07
2023-03-07T18:26:20.167Z,6.67
2023-03-07T18:28:48.276Z,5.10
2023-03-07T18:31:21.466Z,5.20
2023-03-07T18:33:50.995Z,3.90
2023-03-07T18:36:17.631Z,4.57
2023-03-07T18:38:44.745Z,4.30
2023-03-07T18:41:16.820Z,3.93
2023-03-07T18:43:43.551Z,4.40
2023-03-07T18:46:12.478Z,4.30
2023-03-07T18:48:39.228Z,3.67
2023-03-07T18:51:17.104Z,3.37
2023-03-07T18:53:44.175Z,3.20
2023-03-07T18:56:15.984Z,3.93
2023-03-07T18:58:45.121Z,3.70
2023-03-07T19:01:16.185Z,4.53
2023-03-07T19:03:43.652Z,3.80
2023-03-07T19:06:12.235Z,3.97
2023-03-07T19:08:38.993Z,4.10
2023-03-07T19:11:07.206Z,4.40
2023-03-07T19:13:33.726Z,4.33
2023-03-07T19:16:06.020Z,3.97
2023-03-07T19:18:33.815Z,5.30
2023-03-07T19:21:00.350Z,5.20
2023-03-07T19:23:26.745Z,4.53
2023-03-07T19:25:53.121Z,4.60
2023-03-07T19:28:19.559Z,5.10
2023-03-07T19:30:46.027Z,4.77
2023-03-07T19:33:12.420Z,6.40
2023-03-07T19:35:38.915Z,6.70
2023-03-07T19:38:05.360Z,6.37
2023-03-07T19:40:31.778Z,6.30
2023-03-07T19:42:58.297Z,6.43
2023-03-07T19:45:25.017Z,6.00
2023-03-07T19:47:51.411Z,6.33
2023-03-07T19:50:18.029Z,5.33
2023-03-07T19:52:44.404Z,7.67
2023-03-07T19:55:10.832Z,7.13
2023-03-07T19:57:37.237Z,7.37
2023-03-07T20:00:05.687Z,7.47
2023-03-07T20:02:34.181Z,7.07
2023-03-07T20:05:00.828Z,6.53
2023-03-07T20:07:27.319Z,7.07
2023-03-07T20:09:54.219Z,6.30
2023-03-07T20:12:20.839Z,6.63
2023-03-07T20:14:48.369Z,6.93
2023-03-07T20:17:14.879Z,7.13
2023-03-07T20:19:41.458Z,7.13
2023-03-07T20:22:08.007Z,7.90
2023-03-07T20:24:36.118Z,7.87
2023-03-07T20:27:02.700Z,8.57
2023-03-07T20:29:29.306Z,7.90
2023-03-07T20:31:56.967Z,8.70
2023-03-07T20:34:25.306Z,9.63
2023-03-07T20:36:52.026Z,9.27
2023-03-07T20:39:18.463Z,8.77
2023-03-07T20:41:45.052Z,9.13
2023-03-07T20:44:13.955Z,8.53
2023-03-07T20:46:41.461Z,8.00
2023-03-07T20:49:08.014Z,9.07
2023-03-07T20:51:36.055Z,9.30
2023-03-07T20:54:05.598Z,9.03
2023-03-07T20:56:33.982Z,8.47
2023-03-07T20:59:00.649Z,8.63
2023-03-07T21:01:29.685Z,8.17
2023-03-07T21:03:59.188Z,8.73
2023-03-07T21:06:26.094Z,8.37
2023-03-07T22:46:31.603Z,6.37
2023-03-07T22:48:58.017Z,5.37
2023-03-07T22:51:25.109Z,5.40
2023-03-07T22:53:52.196Z,5.20
2023-03-07T22:56:21.993Z,4.50
2023-03-07T22:58:48.425Z,3.90
2023-03-07T23:01:17.723Z,3.80
2023-03-07T23:03:44.196Z,3.70
2023-03-07T23:06:13.139Z,3.40
2023-03-07T23:08:39.820Z,3.17
2023-03-07T23:11:08.449Z,3.40
2023-03-07T23:13:35.368Z,3.53
2023-03-07T23:16:10.301Z,3.23
2023-03-07T23:18:38.115Z,3.13
2023-03-07T23:21:06.583Z,3.60
2023-03-07T23:23:33.085Z,3.60
2023-03-07T23:25:59.467Z,2.97
2023-03-07T23:28:25.871Z,2.80
2023-03-07T23:30:52.508Z,3.13
2023-03-07T23:33:19.026Z,3.30
2023-03-07T23:35:45.434Z,3.30
2023-03-07T23:38:13.132Z,3.23
2023-03-07T23:40:39.734Z,3.40
2023-03-07T23:43:06.429Z,3.17
2023-03-07T23:45:32.779Z,3.10
2023-03-07T23:47:59.164Z,2.90
2023-03-07T23:50:25.779Z,2.83
2023-03-07T23:52:52.149Z,2.63
2023-03-07T23:55:18.548Z,3.00
2023-03-07T23:57:46.818Z,2.80
